Time;durP1;ratioP1;P1;durP2;ratioP2;P2;SDS_P1;SDS_P2;PMS_P1;PMS_P2;Temp;Humidity;BMP_temperature;BMP_pressure;BME280_temperature;BME280_humidity;BME280_pressure;Samples;Min_cycle;Max_cycle;Signal;HPM_P1;HPM_P2
2023/06/01 00:00:55;;;;;;;1.37;1.27;;;15.70;81.30;;;;;;5094702;28;20447;-83
2023/06/01 00:03:23;;;;;;;3.20;1.43;;;15.70;81.20;;;;;;5094410;28;20475;-83
2023/06/01 00:05:49;;;;;;;2.17;1.23;;;15.60;81.10;;;;;;5094244;28;20994;-83
2023/06/01 00:08:16;;;;;;;2.20;1.20;;;15.60;81.10;;;;;;5094259;28;20809;-83
2023/06/01 00:10:44;;;;;;;1.80;1.40;;;15.50;80.80;;;;;;5094840;28;20444;-83
2023/06/01 00:13:11;;;;;;;1.20;1.10;;;15.50;80.90;;;;;;5094087;28;20479;-83
2023/06/01 00:15:38;;;;;;;2.50;1.10;;;15.50;80.70;;;;;;5094043;28;20464;-83
2023/06/01 00:18:05;;;;;;;1.53;1.40;;;15.40;80.90;;;;;;5094339;28;20440;-83
2023/06/01 00:20:32;;;;;;;2.03;1.70;;;15.40;81.20;;;;;;5093997;28;20484;-83
2023/06/01 00:22:59;;;;;;;1.70;1.60;;;15.30;81.70;;;;;;5094281;28;20435;-83
2023/06/01 00:25:26;;;;;;;2.00;1.20;;;15.30;82.00;;;;;;5093887;28;20944;-83
2023/06/01 00:27:55;;;;;;;1.10;1.07;;;15.20;83.00;;;;;;5094238;28;20447;-83
2023/06/01 00:30:22;;;;;;;1.00;1.00;;;15.20;83.20;;;;;;5094395;28;20490;-83
2023/06/01 00:32:49;;;;;;;0.60;0.60;;;15.20;83.00;;;;;;5093735;28;20483;-83
2023/06/01 00:35:16;;;;;;;1.27;1.17;;;15.10;83.50;;;;;;5093786;28;20459;-83
2023/06/01 00:37:42;;;;;;;2.00;0.90;;;15.10;83.80;;;;;;5094026;28;20440;-83
2023/06/01 00:40:10;;;;;;;1.70;1.37;;;15.10;84.20;;;;;;5094044;28;20447;-83
2023/06/01 00:42:37;;;;;;;1.73;1.60;;;15.20;84.30;;;;;;5093682;28;20947;-83
2023/06/01 00:45:06;;;;;;;1.70;1.10;;;15.10;84.70;;;;;;5093837;28;20459;-83
2023/06/01 00:47:39;;;;;;;1.20;1.10;;;15.10;85.30;;;;;;5093912;28;20447;-83
2023/06/01 00:50:07;;;;;;;1.33;1.27;;;15.10;85.60;;;;;;5094144;28;20420;-83
2023/06/01 00:52:34;;;;;;;1.20;1.10;;;15.00;85.70;;;;;;5093841;28;20483;-82
2023/06/01 00:55:00;;;;;;;1.30;1.20;;;15.00;86.40;;;;;;5093734;28;20468;-83
2023/06/01 00:57:28;;;;;;;4.20;1.43;;;15.00;87.20;;;;;;5094011;28;20475;-82
2023/06/01 00:59:55;;;;;;;3.40;1.40;;;14.90;87.10;;;;;;5093464;28;20432;-83
2023/06/01 01:02:24;;;;;;;2.10;1.43;;;14.90;86.50;;;;;;5093688;28;20444;-83
2023/06/01 01:04:52;;;;;;;1.50;1.33;;;14.80;86.40;;;;;;5093583;28;20484;-83
2023/06/01 01:07:26;;;;;;;2.37;1.80;;;14.80;86.50;;;;;;5093570;28;20464;-83
2023/06/01 01:09:57;;;;;;;1.23;1.20;;;14.80;86.20;;;;;;5093607;28;20439;-83
2023/06/01 01:12:31;;;;;;;3.17;1.50;;;14.80;86.20;;;;;;5094295;28;20475;-82
2023/06/01 01:15:08;;;;;;;1.33;1.23;;;14.70;86.40;;;;;;5093569;28;20471;-83
2023/06/01 01:17:39;;;;;;;2.97;1.10;;;14.80;87.00;;;;;;5093258;28;20489;-82
2023/06/01 01:20:12;;;;;;;1.30;1.20;;;14.70;87.20;;;;;;5093333;28;20475;-83
2023/06/01 01:23:01;;;;;;;2.60;1.00;;;14.70;87.70;;;;;;5093728;28;20486;-83
2023/06/01 01:25:46;;;;;;;6.20;1.50;;;14.70;88.10;;;;;;5093385;28;20464;-83
2023/06/01 01:28:32;;;;;;;1.00;0.90;;;14.60;88.40;;;;;;5093436;28;20456;-83
2023/06/01 01:31:01;;;;;;;1.67;1.40;;;14.50;88.80;;;;;;5093143;28;20923;-83
2023/06/01 01:33:30;;;;;;;3.70;1.37;;;14.50;88.80;;;;;;5092988;28;21044;-83
2023/06/01 01:35:57;;;;;;;1.13;1.07;;;14.40;88.80;;;;;;5092966;28;20898;-83
2023/06/01 01:38:24;;;;;;;1.20;1.10;;;14.40;88.40;;;;;;5093023;28;20452;-83
2023/06/01 01:40:52;;;;;;;1.53;1.30;;;14.40;88.90;;;;;;5093322;28;20454;-83
2023/06/01 01:43:19;;;;;;;3.23;1.10;;;14.30;89.10;;;;;;5093219;28;20448;-83
2023/06/01 01:45:54;;;;;;;2.60;1.50;;;14.30;89.30;;;;;;5093198;28;20483;-83
2023/06/01 01:48:34;;;;;;;2.33;1.30;;;14.30;89.70;;;;;;5092978;28;21014;-83
2023/06/01 01:51:08;;;;;;;1.67;1.17;;;14.30;89.50;;;;;;5093237;28;20529;-83
2023/06/01 01:53:37;;;;;;;1.17;1.00;;;14.20;89.90;;;;;;5093208;28;20463;-83
2023/06/01 01:56:05;;;;;;;3.80;1.40;;;14.20;90.10;;;;;;5093047;28;20979;-83
2023/06/01 01:58:32;;;;;;;1.90;1.27;;;14.10;90.00;;;;;;5095246;28;20447;-83
2023/06/01 02:01:02;;;;;;;1.40;1.30;;;14.10;90.20;;;;;;5097064;28;20824;-83
2023/06/01 02:03:29;;;;;;;1.90;1.10;;;14.10;90.00;;;;;;5097028;28;20421;-83
2023/06/01 02:05:55;;;;;;;1.10;1.10;;;14.10;90.10;;;;;;5096900;28;20467;-83
2023/06/01 02:08:22;;;;;;;0.97;0.80;;;14.00;90.20;;;;;;5096592;28;20970;-82
2023/06/01 02:10:49;;;;;;;2.40;1.10;;;14.00;90.40;;;;;;5096849;28;20452;-83
2023/06/01 02:13:16;;;;;;;3.43;1.87;;;14.00;90.50;;;;;;5096531;28;20467;-82
2023/06/01 02:15:43;;;;;;;1.43;1.33;;;14.00;90.40;;;;;;5096725;28;20467;-83
2023/06/01 02:18:11;;;;;;;6.20;1.00;;;14.00;90.70;;;;;;5096750;28;20811;-83
2023/06/01 02:20:38;;;;;;;2.07;1.77;;;14.00;90.80;;;;;;5096412;28;20903;-82
2023/06/01 02:23:05;;;;;;;3.00;1.60;;;14.00;90.70;;;;;;5096609;28;20447;-83
2023/06/01 02:25:31;;;;;;;2.67;1.50;;;13.90;91.00;;;;;;5096555;28;20468;-82
2023/06/01 02:27:58;;;;;;;1.00;1.00;;;13.90;90.90;;;;;;5096551;28;20448;-82
2023/06/01 02:30:25;;;;;;;1.50;1.40;;;13.80;91.00;;;;;;5096186;28;20448;-82
2023/06/01 02:32:52;;;;;;;1.23;0.83;;;13.80;91.10;;;;;;5096366;28;20483;-82
2023/06/01 02:35:20;;;;;;;1.73;1.30;;;13.80;91.40;;;;;;5096339;28;20472;-82
2023/06/01 02:37:47;;;;;;;1.30;1.20;;;13.80;91.50;;;;;;5096362;28;20823;-82
2023/06/01 02:40:14;;;;;;;0.80;0.80;;;13.80;91.40;;;;;;5096303;28;20443;-82
2023/06/01 02:42:41;;;;;;;1.20;1.10;;;13.70;91.60;;;;;;5095940;28;20440;-82
2023/06/01 02:45:09;;;;;;;1.80;1.40;;;13.80;91.80;;;;;;5095904;28;20452;-82
2023/06/01 02:47:36;;;;;;;1.50;1.10;;;13.80;91.80;;;;;;5096401;28;20456;-82
2023/06/01 02:50:04;;;;;;;1.50;0.90;;;13.80;91.70;;;;;;5096339;28;20452;-82
2023/06/01 02:52:33;;;;;;;2.07;1.47;;;13.70;91.80;;;;;;5095929;28;20483;-82
2023/06/01 02:54:59;;;;;;;1.40;1.30;;;13.70;92.00;;;;;;5095822;28;20899;-82
2023/06/01 02:57:26;;;;;;;1.37;1.17;;;13.70;92.10;;;;;;5095958;28;20962;-82
2023/06/01 02:59:53;;;;;;;1.30;1.20;;;13.60;92.10;;;;;;5096036;28;20805;-82
2023/06/01 03:02:20;;;;;;;4.10;1.40;;;13.60;92.00;;;;;;5095596;28;20970;-82
2023/06/01 03:04:48;;;;;;;2.13;1.60;;;13.50;92.00;;;;;;5095481;28;20456;-82
2023/06/01 03:07:15;;;;;;;5.70;1.43;;;13.60;92.20;;;;;;5096545;28;20509;-82
2023/06/01 03:09:43;;;;;;;1.20;1.10;;;13.60;92.30;;;;;;5095500;28;20447;-82
2023/06/01 03:12:10;;;;;;;2.93;1.20;;;13.50;92.20;;;;;;5095619;28;20466;-81
2023/06/01 03:14:37;;;;;;;3.70;1.07;;;13.50;92.20;;;;;;5095583;28;20468;-82
2023/06/01 03:17:05;;;;;;;1.60;1.50;;;13.50;92.30;;;;;;5095340;28;20928;-82
2023/06/01 03:19:32;;;;;;;1.40;1.30;;;13.40;92.40;;;;;;5094993;28;20931;-82
2023/06/01 03:21:59;;;;;;;1.33;0.97;;;13.40;92.70;;;;;;5095191;28;20443;-82
2023/06/01 03:24:27;;;;;;;3.27;1.37;;;13.40;92.90;;;;;;5095595;28;20448;-82
2023/06/01 03:26:55;;;;;;;1.57;1.33;;;13.40;93.10;;;;;;5095309;28;20452;-82
2023/06/01 03:29:22;;;;;;;0.77;0.77;;;13.40;93.10;;;;;;5095334;28;20448;-82
2023/06/01 03:31:49;;;;;;;1.30;1.20;;;13.30;93.00;;;;;;5095252;28;20452;-82
2023/06/01 03:34:16;;;;;;;3.20;1.50;;;13.40;93.20;;;;;;5095085;28;20495;-82
2023/06/01 03:36:47;;;;;;;1.67;1.20;;;13.30;93.40;;;;;;5095133;28;20448;-82
2023/06/01 03:39:15;;;;;;;8.13;1.30;;;13.30;93.70;;;;;;5095150;28;20489;-82
2023/06/01 03:41:42;;;;;;;2.43;1.37;;;13.30;93.90;;;;;;5095234;28;20807;-82
2023/06/01 03:44:11;;;;;;;1.37;1.07;;;13.30;93.70;;;;;;5094956;28;20444;-82
2023/06/01 03:46:37;;;;;;;0.93;0.93;;;13.40;93.90;;;;;;5095271;28;20452;-82
2023/06/01 03:49:05;;;;;;;2.40;1.40;;;13.40;94.10;;;;;;5095190;28;20459;-82
2023/06/01 03:51:32;;;;;;;1.33;1.10;;;13.40;94.50;;;;;;5094891;28;20445;-82
2023/06/01 03:53:59;;;;;;;1.80;1.40;;;13.50;94.10;;;;;;5094736;28;20484;-82
2023/06/01 03:56:25;;;;;;;1.00;0.80;;;13.50;94.30;;;;;;5094758;28;20460;-82
2023/06/01 03:58:52;;;;;;;1.53;1.23;;;13.60;94.40;;;;;;5095202;28;20444;-82
2023/06/01 04:01:22;;;;;;;2.33;1.20;;;13.60;94.60;;;;;;5094695;28;20448;-82
2023/06/01 04:03:50;;;;;;;1.07;0.97;;;13.60;94.80;;;;;;5095557;28;20444;-82
2023/06/01 04:06:17;;;;;;;1.30;1.00;;;13.70;94.90;;;;;;5095477;28;20499;-82
2023/06/01 04:08:49;;;;;;;1.27;1.17;;;13.70;95.20;;;;;;5094866;28;20483;-82
2023/06/01 04:11:16;;;;;;;4.30;1.43;;;13.70;95.50;;;;;;5094269;28;20439;-82
2023/06/01 04:13:43;;;;;;;5.70;2.20;;;13.70;95.80;;;;;;5094373;28;20522;-82
2023/06/01 04:16:10;;;;;;;3.13;1.80;;;13.80;96.00;;;;;;5094420;28;20468;-82
2023/06/01 04:18:38;;;;;;;2.87;1.50;;;13.80;96.40;;;;;;5094378;28;20483;-82
2023/06/01 04:21:05;;;;;;;4.20;1.73;;;13.90;96.70;;;;;;5093461;28;20479;-82
2023/06/01 04:23:32;;;;;;;6.20;1.47;;;13.90;96.90;;;;;;5094343;28;20459;-82
2023/06/01 04:25:59;;;;;;;2.57;1.27;;;14.00;96.70;;;;;;5093909;28;20848;-82
2023/06/01 04:28:26;;;;;;;3.00;1.87;;;14.10;97.00;;;;;;5094043;28;20463;-82
2023/06/01 04:30:54;;;;;;;1.63;1.53;;;14.10;97.00;;;;;;5094174;28;20547;-82
2023/06/01 04:33:22;;;;;;;1.90;1.37;;;14.10;97.00;;;;;;5094116;28;20479;-82
2023/06/01 04:35:52;;;;;;;5.57;2.07;;;14.20;97.30;;;;;;5094061;28;20475;-82
2023/06/01 04:38:19;;;;;;;1.90;1.37;;;14.20;97.20;;;;;;5094342;28;20443;-82
2023/06/01 04:40:46;;;;;;;2.50;1.27;;;14.20;97.30;;;;;;5094037;28;20444;-83
2023/06/01 04:43:13;;;;;;;1.23;1.13;;;14.30;97.10;;;;;;5093658;28;20962;-82
2023/06/01 04:45:41;;;;;;;3.37;1.87;;;14.30;97.60;;;;;;5093592;28;20979;-82
2023/06/01 04:48:08;;;;;;;2.10;1.30;;;14.40;97.80;;;;;;5093907;28;20618;-82
2023/06/01 04:50:35;;;;;;;2.00;1.73;;;14.40;97.90;;;;;;5093912;28;20450;-82
2023/06/01 04:53:03;;;;;;;1.50;1.17;;;14.40;98.20;;;;;;5094006;28;20490;-82
2023/06/01 04:55:30;;;;;;;3.43;1.63;;;14.50;98.20;;;;;;5093464;28;20456;-82
2023/06/01 04:57:57;;;;;;;2.00;1.57;;;14.50;97.20;;;;;;5093772;28;20439;-82
2023/06/01 05:00:25;;;;;;;1.50;1.40;;;14.60;98.30;;;;;;5093924;28;20467;-82
2023/06/01 05:02:51;;;;;;;11.07;1.53;;;14.60;97.60;;;;;;5093828;28;20448;-82
2023/06/01 05:05:18;;;;;;;1.30;1.20;;;14.70;97.40;;;;;;5093613;28;20547;-82
2023/06/01 05:07:45;;;;;;;2.50;1.60;;;14.70;97.90;;;;;;5093371;28;20440;-82
2023/06/01 05:10:14;;;;;;;1.80;1.37;;;14.80;97.80;;;;;;5093600;28;20490;-82
2023/06/01 05:12:41;;;;;;;2.87;1.40;;;14.80;98.20;;;;;;5093266;28;20443;-82
2023/06/01 05:15:10;;;;;;;4.23;1.40;;;14.90;97.30;;;;;;5093215;28;20466;-82
2023/06/01 05:17:38;;;;;;;3.93;1.30;;;15.00;97.40;;;;;;5093383;28;20444;-82
2023/06/01 05:20:08;;;;;;;1.77;1.20;;;15.10;97.60;;;;;;5093343;28;20536;-82
2023/06/01 05:22:35;;;;;;;1.40;1.30;;;15.10;97.90;;;;;;5093449;28;20451;-82
2023/06/01 05:25:02;;;;;;;1.30;0.87;;;15.20;97.60;;;;;;5093066;28;20979;-82
2023/06/01 05:27:30;;;;;;;1.00;0.90;;;15.30;96.50;;;;;;5093404;28;20452;-82
2023/06/01 05:29:57;;;;;;;2.63;1.33;;;15.40;96.90;;;;;;5093407;28;20452;-82
2023/06/01 05:32:24;;;;;;;1.13;1.03;;;15.40;96.40;;;;;;5093615;28;20460;-82
2023/06/01 05:34:50;;;;;;;1.10;1.00;;;15.50;96.20;;;;;;5097454;28;20476;-82
2023/06/01 05:37:17;;;;;;;1.43;1.33;;;15.60;96.60;;;;;;5097457;28;20436;-82
2023/06/01 05:39:44;;;;;;;1.97;1.20;;;15.60;96.30;;;;;;5097203;28;20992;-82
2023/06/01 05:42:11;;;;;;;0.80;0.80;;;15.70;96.50;;;;;;5097517;28;20432;-82
2023/06/01 05:44:39;;;;;;;4.23;1.10;;;15.80;96.30;;;;;;5097162;28;20475;-82
2023/06/01 05:47:06;;;;;;;1.83;1.03;;;15.90;96.20;;;;;;5097385;28;20494;-82
2023/06/01 05:49:34;;;;;;;1.97;1.23;;;15.90;95.70;;;;;;5097275;28;20805;-82
2023/06/01 05:52:01;;;;;;;1.37;1.27;;;15.90;95.50;;;;;;5097011;28;20432;-82
2023/06/01 05:54:27;;;;;;;1.33;1.30;;;16.10;95.30;;;;;;5097050;28;20502;-82
2023/06/01 05:56:54;;;;;;;1.80;1.70;;;16.20;95.00;;;;;;5097304;28;20451;-82
2023/06/01 05:59:21;;;;;;;6.50;1.33;;;16.30;95.10;;;;;;5097510;28;20928;-83
2023/06/01 06:01:49;;;;;;;1.73;1.23;;;16.40;95.00;;;;;;5097063;28;20436;-83
2023/06/01 06:04:16;;;;;;;2.60;1.10;;;16.60;94.90;;;;;;5096785;28;20442;-82
2023/06/01 06:06:43;;;;;;;2.53;1.73;;;16.70;94.90;;;;;;5096920;28;20462;-83
2023/06/01 06:09:11;;;;;;;2.27;1.70;;;16.90;94.60;;;;;;5096921;28;20451;-83
2023/06/01 06:11:38;;;;;;;1.83;1.50;;;17.00;93.80;;;;;;5097033;28;20452;-83
2023/06/01 06:14:05;;;;;;;2.27;2.03;;;17.20;93.50;;;;;;5096681;28;20480;-82
2023/06/01 06:16:32;;;;;;;2.00;1.83;;;17.50;93.30;;;;;;5096534;28;20460;-82
2023/06/01 06:19:00;;;;;;;1.20;1.20;;;17.70;92.70;;;;;;5096529;28;20786;-83
2023/06/01 06:21:26;;;;;;;4.10;2.03;;;18.00;91.90;;;;;;5096379;28;20553;-83
2023/06/01 06:23:58;;;;;;;1.90;1.27;;;18.20;91.30;;;;;;5096669;28;20440;-83
2023/06/01 06:26:25;;;;;;;10.37;2.37;;;18.40;90.90;;;;;;5096582;28;20468;-84
2023/06/01 06:28:52;;;;;;;5.90;1.93;;;18.70;91.80;;;;;;5096920;28;20451;-82
2023/06/01 06:31:19;;;;;;;5.13;1.37;;;19.00;90.60;;;;;;5096524;28;20451;-84
2023/06/01 06:33:46;;;;;;;2.50;1.43;;;19.40;89.80;;;;;;5096198;28;20962;-83
2023/06/01 06:36:14;;;;;;;2.77;1.70;;;19.80;90.00;;;;;;5096254;28;20482;-84
2023/06/01 06:38:41;;;;;;;1.57;1.17;;;20.20;88.50;;;;;;5096159;28;20436;-85
2023/06/01 06:41:08;;;;;;;2.27;1.77;;;20.60;87.70;;;;;;5096451;28;20408;-84
2023/06/01 06:43:35;;;;;;;2.40;2.00;;;20.80;85.50;;;;;;5095751;28;20420;-84
2023/06/01 06:46:01;;;;;;;1.57;1.47;;;21.00;84.10;;;;;;5095976;28;21005;-84
2023/06/01 06:48:28;;;;;;;2.73;2.53;;;21.20;83.10;;;;;;5096225;28;20427;-84
2023/06/01 06:50:55;;;;;;;9.07;2.00;;;21.40;83.60;;;;;;5096340;28;20455;-84
2023/06/01 06:53:23;;;;;;;1.77;1.67;;;21.50;82.50;;;;;;5096131;28;20932;-85
2023/06/01 06:55:50;;;;;;;2.60;2.27;;;21.50;83.10;;;;;;5096077;28;20463;-85
2023/06/01 06:58:17;;;;;;;5.33;1.87;;;21.60;82.70;;;;;;5096059;28;20447;-85
2023/06/01 07:00:44;;;;;;;2.73;1.43;;;21.70;83.10;;;;;;5095959;28;20439;-85
2023/06/01 07:03:11;;;;;;;3.77;2.10;;;21.80;81.80;;;;;;5096008;28;20478;-84
2023/06/01 07:05:38;;;;;;;3.03;2.73;;;21.80;82.00;;;;;;5095812;28;20475;-84
2023/06/01 07:08:05;;;;;;;5.33;1.70;;;21.80;82.10;;;;;;5096016;28;20205;-85
2023/06/01 07:10:33;;;;;;;2.33;1.83;;;21.90;81.40;;;;;;5095859;28;20435;-85
2023/06/01 07:13:00;;;;;;;1.47;1.30;;;22.00;79.90;;;;;;5095773;28;20439;-85
2023/06/01 07:15:27;;;;;;;3.27;1.97;;;22.10;80.50;;;;;;5095335;28;20494;-85
2023/06/01 07:17:53;;;;;;;3.77;2.13;;;22.40;80.00;;;;;;5095870;28;20212;-85
2023/06/01 07:20:20;;;;;;;2.93;2.13;;;22.60;79.50;;;;;;5095523;28;20232;-85
2023/06/01 07:22:47;;;;;;;2.30;1.70;;;22.80;78.40;;;;;;5095683;28;20454;-85
2023/06/01 07:25:14;;;;;;;2.30;1.77;;;23.10;78.40;;;;;;5095594;28;20252;-85
2023/06/01 07:27:43;;;;;;;1.50;1.35;;;23.40;77.80;;;;;;5095603;28;20224;-85
2023/06/01 07:30:12;;;;;;;5.10;1.90;;;23.60;78.00;;;;;;5095142;28;20251;-85
2023/06/01 07:32:38;;;;;;;2.08;1.67;;;23.80;78.10;;;;;;5095061;28;20706;-84
2023/06/01 07:35:07;;;;;;;2.85;2.28;;;24.10;78.10;;;;;;5095294;28;20232;-85
2023/06/01 07:37:34;;;;;;;2.25;2.05;;;24.40;76.80;;;;;;5095420;28;20205;-85
2023/06/01 07:40:00;;;;;;;1.77;1.30;;;25.00;76.20;;;;;;5095375;28;20204;-85
2023/06/01 07:42:27;;;;;;;2.17;1.80;;;25.70;74.80;;;;;;5095940;28;20568;-85
2023/06/01 07:44:56;;;;;;;2.17;1.77;;;26.10;72.30;;;;;;5094887;28;20704;-85
2023/06/01 07:47:25;;;;;;;1.90;1.25;;;26.90;71.80;;;;;;5095179;28;20205;-86
2023/06/01 07:49:51;;;;;;;3.35;1.67;;;27.70;70.20;;;;;;5095201;28;20205;-86
2023/06/01 07:52:18;;;;;;;2.28;1.67;;;28.60;67.50;;;;;;5094983;28;20205;-86
2023/06/01 07:54:45;;;;;;;3.08;1.70;;;29.70;64.50;;;;;;5094565;28;20294;-85
2023/06/01 07:57:12;;;;;;;1.52;1.42;;;30.90;60.10;;;;;;5094073;28;20665;-86
2023/06/01 07:59:39;;;;;;;1.50;1.40;;;32.10;57.60;;;;;;5094623;28;20202;-86
2023/06/01 08:02:07;;;;;;;1.40;1.30;;;32.60;55.80;;;;;;5094812;28;20206;-86
2023/06/01 08:04:34;;;;;;;1.63;1.40;;;32.90;55.00;;;;;;5094766;28;20217;-87
2023/06/01 08:07:03;;;;;;;1.67;1.58;;;32.80;54.40;;;;;;5094642;28;20203;-87
2023/06/01 08:09:30;;;;;;;2.45;1.38;;;32.60;53.70;;;;;;5095017;28;20558;-87
2023/06/01 08:11:57;;;;;;;1.40;1.30;;;32.90;54.40;;;;;;5094519;28;20668;-87
2023/06/01 08:14:23;;;;;;;2.95;1.58;;;32.80;51.30;;;;;;5094549;28;20313;-87
2023/06/01 08:16:51;;;;;;;2.00;1.50;;;32.50;51.80;;;;;;5076931;28;20210;-87
2023/06/01 08:19:19;;;;;;;1.88;1.73;;;32.10;52.20;;;;;;5074259;28;20199;-88
2023/06/01 08:21:46;;;;;;;1.83;1.60;;;31.80;52.50;;;;;;5082951;28;20226;-87
2023/06/01 08:24:13;;;;;;;1.83;1.67;;;31.70;52.70;;;;;;5094315;28;20202;-87
2023/06/01 08:26:40;;;;;;;1.42;1.33;;;31.60;52.10;;;;;;5094162;28;20184;-88
2023/06/01 08:29:07;;;;;;;1.33;1.33;;;31.30;53.00;;;;;;5094047;28;20204;-83
2023/06/01 08:31:34;;;;;;;1.60;1.50;;;31.30;54.00;;;;;;5094175;28;20216;-87
2023/06/01 08:34:05;;;;;;;4.72;1.52;;;31.40;52.70;;;;;;5084582;28;20219;-87
2023/06/01 08:36:33;;;;;;;1.52;1.42;;;31.60;54.40;;;;;;5073875;28;20266;-88
2023/06/01 08:39:00;;;;;;;2.42;1.70;;;31.50;54.40;;;;;;5074044;28;20202;-81
2023/06/01 08:41:37;;;;;;;2.17;1.52;;;31.40;54.00;;;;;;5074171;28;20675;-89
2023/06/01 08:44:06;;;;;;;1.88;1.75;;;31.00;53.40;;;;;;5090552;28;20239;-88
2023/06/01 08:46:34;;;;;;;1.88;1.77;;;30.40;54.80;;;;;;5094881;28;20233;-89
2023/06/01 08:49:01;;;;;;;2.45;1.52;;;30.10;54.40;;;;;;5095001;28;20208;-90
2023/06/01 08:51:29;;;;;;;1.25;1.25;;;29.40;55.10;;;;;;5095064;28;20205;-88
2023/06/01 08:54:01;;;;;;;1.90;1.80;;;29.00;55.70;;;;;;5094149;28;20703;-90
2023/06/01 08:56:29;;;;;;;1.60;1.50;;;28.70;56.60;;;;;;5094536;28;20234;-90
2023/06/01 08:58:57;;;;;;;1.50;1.40;;;28.70;57.40;;;;;;5091708;28;20200;-88
2023/06/01 09:01:25;;;;;;;1.88;1.55;;;29.00;56.70;;;;;;5094018;28;20194;-90
2023/06/01 09:03:57;;;;;;;1.38;1.27;;;29.80;56.50;;;;;;5094602;28;20185;-89
2023/06/01 09:06:23;;;;;;;4.10;1.63;;;30.40;55.00;;;;;;5094189;28;20216;-90
2023/06/01 09:08:50;;;;;;;2.05;1.58;;;30.70;54.60;;;;;;5093943;28;20204;-89
2023/06/01 09:11:20;;;;;;;2.10;1.80;;;30.70;54.10;;;;;;5079548;28;20200;-88
2023/06/01 09:13:46;;;;;;;1.48;1.42;;;30.20;55.00;;;;;;5081192;28;20206;-89
2023/06/01 09:16:13;;;;;;;2.03;1.73;;;29.70;55.00;;;;;;5074011;28;20331;-91
2023/06/01 09:18:52;;;;;;;1.80;1.70;;;29.10;56.80;;;;;;5074070;28;20215;-90
2023/06/01 09:21:19;;;;;;;3.17;1.65;;;28.70;57.60;;;;;;5073944;28;20650;-90
2023/06/01 09:23:47;;;;;;;2.70;1.65;;;28.30;59.10;;;;;;5074384;28;20216;-90
2023/06/01 09:26:15;;;;;;;2.00;1.65;;;28.00;59.90;;;;;;5074053;28;20224;-91
2023/06/01 09:28:57;;;;;;;3.08;1.70;;;27.80;60.10;;;;;;5074122;28;20206;-90
2023/06/01 09:31:39;;;;;;;2.45;2.25;;;27.50;60.10;;;;;;5074133;28;20197;-90
2023/06/01 09:34:06;;;;;;;3.15;1.90;;;27.60;59.50;;;;;;5074186;28;20614;-90
2023/06/01 09:36:33;;;;;;;3.85;2.58;;;27.50;59.50;;;;;;5074028;28;20197;-89
2023/06/01 09:39:05;;;;;;;1.83;1.73;;;27.40;60.00;;;;;;5074130;28;20676;-90
2023/06/01 09:41:52;;;;;;;3.95;2.72;;;27.40;59.80;;;;;;5073221;28;20244;-89
2023/06/01 09:44:30;;;;;;;1.80;1.70;;;27.40;57.90;;;;;;5073861;28;20208;-88
2023/06/01 09:46:58;;;;;;;1.95;1.85;;;27.40;58.50;;;;;;5073982;28;20190;-90
2023/06/01 09:49:26;;;;;;;4.30;1.85;;;27.20;58.40;;;;;;5079360;28;20193;-90
2023/06/01 09:51:54;;;;;;;2.60;1.98;;;27.10;59.40;;;;;;5074617;28;20210;-90
2023/06/01 09:54:25;;;;;;;1.85;1.75;;;27.10;59.30;;;;;;5073874;28;20202;-90
2023/06/01 09:56:53;;;;;;;1.90;1.80;;;27.10;58.00;;;;;;5073560;28;20194;-89
2023/06/01 09:59:21;;;;;;;2.45;2.25;;;27.10;58.40;;;;;;5073775;28;20198;-86
2023/06/01 10:01:52;;;;;;;2.35;2.17;;;27.10;58.20;;;;;;5073524;28;20638;-89
2023/06/01 10:04:23;;;;;;;1.63;1.52;;;26.90;56.70;;;;;;5073370;28;20187;-83
2023/06/01 10:06:52;;;;;;;2.80;2.42;;;26.90;58.70;;;;;;5073381;28;20187;-90
2023/06/01 10:09:20;;;;;;;2.40;2.25;;;27.00;59.20;;;;;;5073764;28;20271;-88
2023/06/01 10:11:48;;;;;;;2.28;2.08;;;27.00;59.80;;;;;;5073522;28;20202;-87
2023/06/01 10:14:15;;;;;;;3.03;2.40;;;27.00;57.00;;;;;;5073068;28;20259;-86
2023/06/01 10:16:42;;;;;;;3.08;2.20;;;27.00;55.40;;;;;;5073399;28;20570;-87
2023/06/01 10:19:12;;;;;;;1.55;1.45;;;26.90;56.20;;;;;;5074803;28;20657;-88
2023/06/01 10:21:42;;;;;;;1.92;1.83;;;26.80;57.10;;;;;;5077293;28;20245;-88
2023/06/01 10:24:09;;;;;;;3.08;1.73;;;26.90;56.20;;;;;;5077161;28;20213;-88
2023/06/01 10:26:42;;;;;;;2.17;2.00;;;27.00;57.20;;;;;;5076596;28;20658;-87
2023/06/01 10:29:10;;;;;;;1.92;1.80;;;27.10;55.50;;;;;;5076912;28;20608;-87
2023/06/01 10:31:42;;;;;;;3.25;2.03;;;27.10;56.60;;;;;;5076736;28;20191;-89
2023/06/01 10:34:12;;;;;;;1.70;1.60;;;27.10;54.60;;;;;;5077272;28;20187;-91
2023/06/01 10:37:13;;;;;;;3.75;2.35;;;27.00;55.10;;;;;;5076407;28;20202;-86
2023/06/01 10:39:41;;;;;;;1.80;1.70;;;26.90;56.20;;;;;;5076764;28;20182;-87
2023/06/01 10:42:37;;;;;;;2.25;2.05;;;27.00;55.90;;;;;;5077161;28;20577;-88
2023/06/01 10:45:05;;;;;;;2.85;1.80;;;26.90;55.20;;;;;;5077857;28;20271;-89
2023/06/01 10:47:45;;;;;;;2.53;2.33;;;26.80;54.90;;;;;;5083714;28;20209;-88
2023/06/01 10:50:17;;;;;;;1.85;1.63;;;26.70;55.80;;;;;;5077499;28;20186;-91
2023/06/01 10:52:44;;;;;;;3.38;2.05;;;26.60;53.70;;;;;;5077017;28;20194;-88
2023/06/01 10:55:22;;;;;;;2.03;1.83;;;26.60;54.70;;;;;;5076022;28;20232;-88
2023/06/01 10:57:49;;;;;;;1.90;1.70;;;26.50;54.80;;;;;;5076533;28;20205;-89
2023/06/01 11:00:18;;;;;;;1.55;1.45;;;26.70;53.50;;;;;;5076562;28;20217;-90
2023/06/01 11:02:48;;;;;;;1.80;1.70;;;26.90;53.60;;;;;;5077019;28;20225;-87
2023/06/01 11:05:38;;;;;;;1.80;1.70;;;27.10;54.10;;;;;;5076500;28;20226;-87
2023/06/01 11:08:07;;;;;;;3.88;2.40;;;27.30;54.60;;;;;;5075845;28;20210;-87
2023/06/01 11:10:58;;;;;;;2.15;1.88;;;27.30;53.80;;;;;;5076298;28;20206;-88
2023/06/01 11:13:27;;;;;;;1.55;1.45;;;27.20;51.80;;;;;;5076954;28;20210;-88
2023/06/01 11:16:28;;;;;;;4.68;2.35;;;27.10;53.40;;;;;;5076496;28;20608;-87
2023/06/01 11:18:58;;;;;;;3.72;1.90;;;26.80;53.70;;;;;;5076405;28;20237;-88
2023/06/01 11:21:28;;;;;;;3.70;2.17;;;26.70;53.90;;;;;;5085882;28;20238;-87
2023/06/01 11:23:57;;;;;;;2.75;1.65;;;26.60;54.40;;;;;;5083716;28;20205;-89
2023/06/01 11:26:29;;;;;;;4.10;1.85;;;26.70;53.90;;;;;;5081599;28;20305;-89
2023/06/01 11:29:08;;;;;;;2.88;2.00;;;26.70;54.00;;;;;;5082342;28;20272;-88
2023/06/01 11:31:37;;;;;;;4.82;2.95;;;26.70;54.10;;;;;;5085149;28;20190;-87
2023/06/01 11:34:04;;;;;;;1.60;1.50;;;26.70;54.20;;;;;;5081368;28;20277;-88
2023/06/01 11:36:47;;;;;;;1.50;1.40;;;26.70;55.80;;;;;;5077394;28;20226;-87
2023/06/01 11:39:22;;;;;;;2.00;1.55;;;26.70;54.60;;;;;;5076469;28;20190;-88
2023/06/01 11:42:04;;;;;;;2.75;2.08;;;26.70;55.60;;;;;;5076139;28;20185;-89
2023/06/01 11:44:30;;;;;;;3.45;1.50;;;26.60;55.20;;;;;;5075877;28;20221;-88
2023/06/01 11:46:58;;;;;;;2.78;2.08;;;26.60;55.50;;;;;;5075310;28;20244;-88
2023/06/01 11:49:26;;;;;;;1.92;1.58;;;26.60;53.10;;;;;;5075742;28;20202;-88
2023/06/01 11:51:55;;;;;;;1.70;1.60;;;26.60;53.50;;;;;;5075931;28;20198;-88
2023/06/01 11:54:26;;;;;;;1.90;1.80;;;26.50;54.50;;;;;;5075412;28;20198;-87
2023/06/01 11:56:53;;;;;;;1.70;1.58;;;26.40;53.50;;;;;;5075278;28;20256;-87
2023/06/01 11:59:21;;;;;;;2.38;2.17;;;26.30;54.00;;;;;;5074921;28;20201;-87
2023/06/01 12:01:50;;;;;;;1.88;1.75;;;26.30;54.10;;;;;;5075055;28;20202;-89
2023/06/01 12:04:18;;;;;;;2.92;2.60;;;26.30;54.60;;;;;;5074657;28;20228;-87
2023/06/01 12:06:46;;;;;;;3.50;2.28;;;26.20;53.80;;;;;;5074870;28;20206;-87
2023/06/01 12:09:16;;;;;;;2.08;1.73;;;26.10;54.30;;;;;;5076581;28;20213;-85
2023/06/01 12:11:44;;;;;;;2.15;1.60;;;26.00;56.60;;;;;;5077392;28;20204;-87
2023/06/01 12:14:11;;;;;;;1.90;1.80;;;26.00;56.50;;;;;;5074797;28;20198;-87
2023/06/01 12:16:53;;;;;;;3.42;1.80;;;26.10;54.10;;;;;;5074763;28;20222;-89
2023/06/01 12:19:20;;;;;;;1.75;1.63;;;26.20;54.70;;;;;;5074575;28;20186;-87
2023/06/01 12:21:49;;;;;;;2.63;1.85;;;26.20;54.90;;;;;;5074132;28;20238;-86
2023/06/01 12:24:18;;;;;;;2.63;1.77;;;26.20;54.50;;;;;;5074253;28;20205;-87
2023/06/01 12:26:44;;;;;;;2.40;1.92;;;26.10;54.00;;;;;;5074424;28;20670;-88
2023/06/01 12:29:12;;;;;;;2.50;2.38;;;26.10;52.80;;;;;;5074326;28;20289;-86
2023/06/01 12:31:39;;;;;;;1.80;1.70;;;26.00;53.20;;;;;;5073923;28;20677;-86
2023/06/01 12:34:17;;;;;;;3.17;1.77;;;25.90;54.10;;;;;;5074060;28;20339;-86
2023/06/01 12:36:44;;;;;;;2.33;1.95;;;25.80;55.40;;;;;;5074160;28;20206;-86
2023/06/01 12:39:11;;;;;;;2.15;1.90;;;25.80;56.30;;;;;;5074104;28;20206;-86
2023/06/01 12:41:48;;;;;;;2.30;1.58;;;25.80;57.90;;;;;;5073585;28;20198;-87
2023/06/01 12:44:19;;;;;;;3.05;2.10;;;25.90;55.80;;;;;;5074231;28;20202;-86
2023/06/01 12:46:46;;;;;;;4.63;2.45;;;25.80;55.70;;;;;;5073850;28;20182;-87
2023/06/01 12:49:16;;;;;;;2.20;1.55;;;25.80;54.10;;;;;;5073813;28;20198;-86
2023/06/01 12:51:43;;;;;;;1.85;1.75;;;25.80;54.90;;;;;;5074054;28;20204;-87
2023/06/01 12:54:09;;;;;;;2.28;2.05;;;25.80;54.30;;;;;;5075922;28;20206;-88
2023/06/01 12:56:37;;;;;;;2.42;2.33;;;25.70;53.90;;;;;;5074205;28;20226;-89